sensor_id;sensor_type;location;lat;lon;timestamp;P1;durP1;ratioP1;P2;durP2;ratioP2
68680;SDS011;55836;49.858;6.756;2022-11-15T00:00:27;20.13;;;12.13;;
68680;SDS011;55836;49.858;6.756;2022-11-15T00:02:53;18.77;;;13.27;;
68680;SDS011;55836;49.858;6.756;2022-11-15T00:05:19;25.13;;;17.37;;
68680;SDS011;55836;49.858;6.756;2022-11-15T00:07:45;28.50;;;18.20;;
68680;SDS011;55836;49.858;6.756;2022-11-15T00:10:11;24.83;;;17.63;;
68680;SDS011;55836;49.858;6.756;2022-11-15T00:12:37;27.47;;;18.00;;
68680;SDS011;55836;49.858;6.756;2022-11-15T00:15:04;23.53;;;17.63;;
68680;SDS011;55836;49.858;6.756;2022-11-15T00:17:30;23.57;;;16.63;;
68680;SDS011;55836;49.858;6.756;2022-11-15T00:19:56;27.97;;;19.27;;
68680;SDS011;55836;49.858;6.756;2022-11-15T00:22:22;26.73;;;17.97;;
68680;SDS011;55836;49.858;6.756;2022-11-15T00:24:48;27.13;;;18.03;;
68680;SDS011;55836;49.858;6.756;2022-11-15T00:27:14;28.10;;;17.70;;
68680;SDS011;55836;49.858;6.756;2022-11-15T00:29:40;27.50;;;19.93;;
68680;SDS011;55836;49.858;6.756;2022-11-15T00:32:11;26.63;;;19.00;;
68680;SDS011;55836;49.858;6.756;2022-11-15T00:34:37;24.80;;;18.80;;
68680;SDS011;55836;49.858;6.756;2022-11-15T00:37:03;25.20;;;19.07;;
68680;SDS011;55836;49.858;6.756;2022-11-15T00:39:29;26.30;;;19.43;;
68680;SDS011;55836;49.858;6.756;2022-11-15T00:41:55;28.47;;;18.67;;
68680;SDS011;55836;49.858;6.756;2022-11-15T00:44:21;28.77;;;19.47;;
68680;SDS011;55836;49.858;6.756;2022-11-15T00:46:47;25.77;;;18.83;;
68680;SDS011;55836;49.858;6.756;2022-11-15T00:49:13;28.23;;;18.10;;
68680;SDS011;55836;49.858;6.756;2022-11-15T00:51:39;26.87;;;19.20;;
68680;SDS011;55836;49.858;6.756;2022-11-15T00:54:05;27.53;;;19.23;;
68680;SDS011;55836;49.858;6.756;2022-11-15T00:56:31;26.20;;;18.83;;
68680;SDS011;55836;49.858;6.756;2022-11-15T00:58:57;27.63;;;17.97;;
68680;SDS011;55836;49.858;6.756;2022-11-15T01:01:23;25.73;;;18.87;;
68680;SDS011;55836;49.858;6.756;2022-11-15T01:03:49;26.33;;;17.63;;
68680;SDS011;55836;49.858;6.756;2022-11-15T01:06:15;27.73;;;18.37;;
68680;SDS011;55836;49.858;6.756;2022-11-15T01:08:41;24.83;;;18.40;;
68680;SDS011;55836;49.858;6.756;2022-11-15T01:11:09;25.20;;;17.47;;
68680;SDS011;55836;49.858;6.756;2022-11-15T01:13:35;24.00;;;17.47;;
68680;SDS011;55836;49.858;6.756;2022-11-15T01:16:14;22.10;;;16.50;;
68680;SDS011;55836;49.858;6.756;2022-11-15T01:18:42;24.97;;;16.80;;
68680;SDS011;55836;49.858;6.756;2022-11-15T01:21:09;25.90;;;16.30;;
68680;SDS011;55836;49.858;6.756;2022-11-15T01:23:36;23.93;;;16.37;;
68680;SDS011;55836;49.858;6.756;2022-11-15T01:26:03;19.80;;;15.13;;
68680;SDS011;55836;49.858;6.756;2022-11-15T01:28:32;17.70;;;13.13;;
68680;SDS011;55836;49.858;6.756;2022-11-15T01:30:59;21.30;;;14.73;;
68680;SDS011;55836;49.858;6.756;2022-11-15T01:33:25;19.50;;;14.80;;
68680;SDS011;55836;49.858;6.756;2022-11-15T01:35:52;21.00;;;16.23;;
68680;SDS011;55836;49.858;6.756;2022-11-15T01:38:18;22.17;;;15.63;;
68680;SDS011;55836;49.858;6.756;2022-11-15T01:40:43;22.73;;;16.43;;
68680;SDS011;55836;49.858;6.756;2022-11-15T01:43:20;25.67;;;18.10;;
68680;SDS011;55836;49.858;6.756;2022-11-15T01:45:46;22.33;;;15.03;;
68680;SDS011;55836;49.858;6.756;2022-11-15T01:48:15;24.33;;;15.83;;
68680;SDS011;55836;49.858;6.756;2022-11-15T01:50:41;21.97;;;16.40;;
68680;SDS011;55836;49.858;6.756;2022-11-15T01:53:07;19.63;;;14.63;;
68680;SDS011;55836;49.858;6.756;2022-11-15T01:55:35;15.10;;;12.87;;
68680;SDS011;55836;49.858;6.756;2022-11-15T01:58:01;15.77;;;12.23;;
68680;SDS011;55836;49.858;6.756;2022-11-15T02:00:30;16.47;;;13.03;;
68680;SDS011;55836;49.858;6.756;2022-11-15T02:02:56;18.83;;;13.50;;
68680;SDS011;55836;49.858;6.756;2022-11-15T02:05:22;17.17;;;12.70;;
68680;SDS011;55836;49.858;6.756;2022-11-15T02:07:48;17.27;;;11.37;;
68680;SDS011;55836;49.858;6.756;2022-11-15T02:10:19;13.00;;;10.77;;
68680;SDS011;55836;49.858;6.756;2022-11-15T02:12:46;14.40;;;10.50;;
68680;SDS011;55836;49.858;6.756;2022-11-15T02:15:13;15.90;;;10.47;;
68680;SDS011;55836;49.858;6.756;2022-11-15T02:25:37;9.90;;;8.17;;
68680;SDS011;55836;49.858;6.756;2022-11-15T02:33:13;13.03;;;8.47;;
68680;SDS011;55836;49.858;6.756;2022-11-15T02:41:20;14.53;;;9.87;;
68680;SDS011;55836;49.858;6.756;2022-11-15T02:43:51;12.90;;;9.90;;
68680;SDS011;55836;49.858;6.756;2022-11-15T02:46:39;12.50;;;8.67;;
68680;SDS011;55836;49.858;6.756;2022-11-15T02:49:25;11.57;;;8.67;;
68680;SDS011;55836;49.858;6.756;2022-11-15T02:51:53;12.53;;;7.87;;
68680;SDS011;55836;49.858;6.756;2022-11-15T02:54:21;9.13;;;7.20;;
68680;SDS011;55836;49.858;6.756;2022-11-15T02:56:48;8.57;;;7.13;;
68680;SDS011;55836;49.858;6.756;2022-11-15T02:59:19;10.30;;;6.70;;
68680;SDS011;55836;49.858;6.756;2022-11-15T03:07:16;9.37;;;5.63;;
68680;SDS011;55836;49.858;6.756;2022-11-15T03:09:52;6.57;;;5.70;;
68680;SDS011;55836;49.858;6.756;2022-11-15T03:12:34;8.87;;;5.67;;
68680;SDS011;55836;49.858;6.756;2022-11-15T03:15:06;6.33;;;5.60;;
68680;SDS011;55836;49.858;6.756;2022-11-15T03:17:34;8.27;;;5.53;;
68680;SDS011;55836;49.858;6.756;2022-11-15T03:20:03;8.43;;;5.80;;
68680;SDS011;55836;49.858;6.756;2022-11-15T03:22:31;6.50;;;5.77;;
68680;SDS011;55836;49.858;6.756;2022-11-15T03:25:00;8.10;;;5.33;;
68680;SDS011;55836;49.858;6.756;2022-11-15T03:27:29;6.93;;;4.93;;
68680;SDS011;55836;49.858;6.756;2022-11-15T03:30:02;6.00;;;5.40;;
68680;SDS011;55836;49.858;6.756;2022-11-15T03:32:29;6.03;;;5.43;;
68680;SDS011;55836;49.858;6.756;2022-11-15T03:37:30;9.60;;;5.43;;
68680;SDS011;55836;49.858;6.756;2022-11-15T03:39:59;6.77;;;4.87;;
68680;SDS011;55836;49.858;6.756;2022-11-15T03:43:08;6.13;;;5.53;;
68680;SDS011;55836;49.858;6.756;2022-11-15T03:45:19;7.47;;;4.77;;
68680;SDS011;55836;49.858;6.756;2022-11-15T03:47:49;5.47;;;4.63;;
68680;SDS011;55836;49.858;6.756;2022-11-15T03:50:18;5.80;;;4.80;;
68680;SDS011;55836;49.858;6.756;2022-11-15T03:52:45;7.77;;;4.90;;
68680;SDS011;55836;49.858;6.756;2022-11-15T03:55:12;7.67;;;4.87;;
68680;SDS011;55836;49.858;6.756;2022-11-15T03:57:39;6.33;;;4.70;;
68680;SDS011;55836;49.858;6.756;2022-11-15T04:00:05;5.03;;;4.07;;
68680;SDS011;55836;49.858;6.756;2022-11-15T04:02:31;5.50;;;4.60;;
68680;SDS011;55836;49.858;6.756;2022-11-15T04:04:57;6.03;;;4.20;;
68680;SDS011;55836;49.858;6.756;2022-11-15T04:07:23;7.10;;;4.30;;
68680;SDS011;55836;49.858;6.756;2022-11-15T04:09:49;4.63;;;3.87;;
68680;SDS011;55836;49.858;6.756;2022-11-15T04:12:27;5.63;;;4.27;;
68680;SDS011;55836;49.858;6.756;2022-11-15T04:14:57;4.73;;;3.97;;
68680;SDS011;55836;49.858;6.756;2022-11-15T04:17:54;5.53;;;3.73;;
68680;SDS011;55836;49.858;6.756;2022-11-15T04:20:26;4.50;;;3.40;;
68680;SDS011;55836;49.858;6.756;2022-11-15T04:23:12;4.97;;;3.80;;
68680;SDS011;55836;49.858;6.756;2022-11-15T04:25:58;5.30;;;3.90;;
68680;SDS011;55836;49.858;6.756;2022-11-15T04:28:24;5.00;;;4.20;;
68680;SDS011;55836;49.858;6.756;2022-11-15T04:30:50;5.27;;;4.13;;
68680;SDS011;55836;49.858;6.756;2022-11-15T04:33:16;5.80;;;4.33;;
68680;SDS011;55836;49.858;6.756;2022-11-15T04:35:42;4.03;;;3.27;;
68680;SDS011;55836;49.858;6.756;2022-11-15T04:38:09;5.03;;;3.30;;
68680;SDS011;55836;49.858;6.756;2022-11-15T04:40:36;4.57;;;3.67;;
68680;SDS011;55836;49.858;6.756;2022-11-15T04:43:02;6.73;;;4.30;;
68680;SDS011;55836;49.858;6.756;2022-11-15T04:45:28;7.53;;;4.30;;
68680;SDS011;55836;49.858;6.756;2022-11-15T04:47:54;4.37;;;3.97;;
68680;SDS011;55836;49.858;6.756;2022-11-15T04:50:20;6.53;;;4.67;;
68680;SDS011;55836;49.858;6.756;2022-11-15T04:52:50;8.53;;;5.57;;
68680;SDS011;55836;49.858;6.756;2022-11-15T04:55:17;6.20;;;4.63;;
68680;SDS011;55836;49.858;6.756;2022-11-15T04:57:43;5.13;;;4.63;;
68680;SDS011;55836;49.858;6.756;2022-11-15T05:00:10;8.47;;;4.93;;
68680;SDS011;55836;49.858;6.756;2022-11-15T05:02:36;4.83;;;4.27;;
68680;SDS011;55836;49.858;6.756;2022-11-15T05:05:21;6.10;;;4.87;;
68680;SDS011;55836;49.858;6.756;2022-11-15T05:07:47;6.10;;;4.30;;
68680;SDS011;55836;49.858;6.756;2022-11-15T05:10:13;4.57;;;4.00;;
68680;SDS011;55836;49.858;6.756;2022-11-15T05:12:39;7.23;;;5.40;;
68680;SDS011;55836;49.858;6.756;2022-11-15T05:15:05;9.60;;;5.10;;
68680;SDS011;55836;49.858;6.756;2022-11-15T05:17:31;6.50;;;4.43;;
68680;SDS011;55836;49.858;6.756;2022-11-15T05:19:57;7.10;;;5.10;;
68680;SDS011;55836;49.858;6.756;2022-11-15T05:22:23;5.97;;;5.17;;
68680;SDS011;55836;49.858;6.756;2022-11-15T05:24:49;7.00;;;5.10;;
68680;SDS011;55836;49.858;6.756;2022-11-15T05:27:15;5.00;;;4.13;;
68680;SDS011;55836;49.858;6.756;2022-11-15T05:29:41;5.60;;;4.57;;
68680;SDS011;55836;49.858;6.756;2022-11-15T05:32:08;7.77;;;4.33;;
68680;SDS011;55836;49.858;6.756;2022-11-15T05:34:35;6.27;;;4.47;;
68680;SDS011;55836;49.858;6.756;2022-11-15T05:37:01;7.50;;;4.50;;
68680;SDS011;55836;49.858;6.756;2022-11-15T05:39:27;5.87;;;4.10;;
68680;SDS011;55836;49.858;6.756;2022-11-15T05:42:01;6.10;;;4.77;;
68680;SDS011;55836;49.858;6.756;2022-11-15T05:44:30;6.07;;;4.30;;
68680;SDS011;55836;49.858;6.756;2022-11-15T05:46:56;6.13;;;4.37;;
68680;SDS011;55836;49.858;6.756;2022-11-15T05:49:23;5.63;;;4.50;;
68680;SDS011;55836;49.858;6.756;2022-11-15T05:51:50;5.77;;;4.53;;
68680;SDS011;55836;49.858;6.756;2022-11-15T05:54:17;5.83;;;4.47;;
68680;SDS011;55836;49.858;6.756;2022-11-15T05:56:43;6.77;;;4.90;;
68680;SDS011;55836;49.858;6.756;2022-11-15T05:59:09;10.30;;;7.97;;
68680;SDS011;55836;49.858;6.756;2022-11-15T06:01:36;8.20;;;4.60;;
68680;SDS011;55836;49.858;6.756;2022-11-15T06:04:03;6.70;;;5.50;;
68680;SDS011;55836;49.858;6.756;2022-11-15T06:06:29;5.53;;;4.90;;
68680;SDS011;55836;49.858;6.756;2022-11-15T06:08:55;8.70;;;6.50;;
68680;SDS011;55836;49.858;6.756;2022-11-15T06:11:21;8.33;;;5.90;;
68680;SDS011;55836;49.858;6.756;2022-11-15T06:13:47;9.27;;;8.30;;
68680;SDS011;55836;49.858;6.756;2022-11-15T06:16:13;6.63;;;5.10;;
68680;SDS011;55836;49.858;6.756;2022-11-15T06:18:39;9.37;;;6.70;;
68680;SDS011;55836;49.858;6.756;2022-11-15T06:21:05;9.30;;;6.37;;
68680;SDS011;55836;49.858;6.756;2022-11-15T06:23:31;7.53;;;5.60;;
68680;SDS011;55836;49.858;6.756;2022-11-15T06:25:58;8.07;;;5.97;;
68680;SDS011;55836;49.858;6.756;2022-11-15T06:28:24;7.70;;;5.13;;
68680;SDS011;55836;49.858;6.756;2022-11-15T06:30:50;7.00;;;5.20;;
68680;SDS011;55836;49.858;6.756;2022-11-15T06:33:16;8.30;;;6.17;;
68680;SDS011;55836;49.858;6.756;2022-11-15T06:35:42;6.60;;;5.77;;
68680;SDS011;55836;49.858;6.756;2022-11-15T06:38:09;8.60;;;6.27;;
68680;SDS011;55836;49.858;6.756;2022-11-15T06:40:36;13.10;;;7.90;;
68680;SDS011;55836;49.858;6.756;2022-11-15T06:43:03;10.03;;;7.03;;
68680;SDS011;55836;49.858;6.756;2022-11-15T06:45:29;10.00;;;7.00;;
68680;SDS011;55836;49.858;6.756;2022-11-15T06:47:55;10.67;;;6.63;;
68680;SDS011;55836;49.858;6.756;2022-11-15T06:50:21;7.80;;;6.00;;
68680;SDS011;55836;49.858;6.756;2022-11-15T06:52:47;7.73;;;6.93;;
68680;SDS011;55836;49.858;6.756;2022-11-15T06:55:13;8.70;;;7.43;;
68680;SDS011;55836;49.858;6.756;2022-11-15T06:57:51;10.23;;;6.63;;
68680;SDS011;55836;49.858;6.756;2022-11-15T07:00:18;12.33;;;9.50;;
68680;SDS011;55836;49.858;6.756;2022-11-15T07:02:45;8.73;;;6.53;;
68680;SDS011;55836;49.858;6.756;2022-11-15T07:05:11;7.23;;;5.77;;
68680;SDS011;55836;49.858;6.756;2022-11-15T07:07:37;7.70;;;6.53;;
68680;SDS011;55836;49.858;6.756;2022-11-15T07:10:04;6.97;;;6.23;;
68680;SDS011;55836;49.858;6.756;2022-11-15T07:12:30;8.53;;;6.20;;
68680;SDS011;55836;49.858;6.756;2022-11-15T07:14:56;8.50;;;5.70;;
68680;SDS011;55836;49.858;6.756;2022-11-15T07:17:22;7.50;;;5.53;;
68680;SDS011;55836;49.858;6.756;2022-11-15T07:19:48;5.00;;;4.07;;
68680;SDS011;55836;49.858;6.756;2022-11-15T07:22:14;6.47;;;4.57;;
68680;SDS011;55836;49.858;6.756;2022-11-15T07:24:40;4.53;;;3.37;;
68680;SDS011;55836;49.858;6.756;2022-11-15T07:27:06;4.80;;;3.30;;
68680;SDS011;55836;49.858;6.756;2022-11-15T07:29:32;4.43;;;3.47;;
68680;SDS011;55836;49.858;6.756;2022-11-15T07:31:58;5.33;;;3.50;;
68680;SDS011;55836;49.858;6.756;2022-11-15T07:34:24;5.90;;;3.50;;
68680;SDS011;55836;49.858;6.756;2022-11-15T07:36:50;3.57;;;3.00;;
68680;SDS011;55836;49.858;6.756;2022-11-15T07:39:16;3.73;;;3.40;;
68680;SDS011;55836;49.858;6.756;2022-11-15T07:41:42;8.10;;;3.30;;
68680;SDS011;55836;49.858;6.756;2022-11-15T07:44:09;5.50;;;3.47;;
68680;SDS011;55836;49.858;6.756;2022-11-15T07:46:35;5.73;;;3.40;;
68680;SDS011;55836;49.858;6.756;2022-11-15T07:49:01;5.00;;;2.93;;
68680;SDS011;55836;49.858;6.756;2022-11-15T07:51:27;4.87;;;3.17;;
68680;SDS011;55836;49.858;6.756;2022-11-15T07:53:53;4.50;;;3.20;;
68680;SDS011;55836;49.858;6.756;2022-11-15T07:56:19;3.43;;;3.00;;
68680;SDS011;55836;49.858;6.756;2022-11-15T07:58:45;5.93;;;3.03;;
68680;SDS011;55836;49.858;6.756;2022-11-15T08:01:12;6.67;;;3.50;;
68680;SDS011;55836;49.858;6.756;2022-11-15T08:03:38;4.33;;;3.83;;
68680;SDS011;55836;49.858;6.756;2022-11-15T08:06:04;5.20;;;3.30;;
68680;SDS011;55836;49.858;6.756;2022-11-15T08:08:30;5.93;;;3.10;;
68680;SDS011;55836;49.858;6.756;2022-11-15T08:10:59;5.03;;;2.80;;
68680;SDS011;55836;49.858;6.756;2022-11-15T08:13:25;4.97;;;3.20;;
68680;SDS011;55836;49.858;6.756;2022-11-15T08:15:51;4.50;;;3.30;;
68680;SDS011;55836;49.858;6.756;2022-11-15T08:18:17;7.87;;;3.33;;
68680;SDS011;55836;49.858;6.756;2022-11-15T08:20:43;8.93;;;4.03;;
68680;SDS011;55836;49.858;6.756;2022-11-15T08:23:10;4.50;;;3.33;;
68680;SDS011;55836;49.858;6.756;2022-11-15T08:25:37;3.43;;;2.90;;
68680;SDS011;55836;49.858;6.756;2022-11-15T08:28:05;3.63;;;2.87;;
68680;SDS011;55836;49.858;6.756;2022-11-15T08:30:34;5.50;;;3.27;;
68680;SDS011;55836;49.858;6.756;2022-11-15T08:33:01;5.53;;;2.73;;
68680;SDS011;55836;49.858;6.756;2022-11-15T08:35:27;4.97;;;2.77;;
68680;SDS011;55836;49.858;6.756;2022-11-15T08:37:54;5.20;;;3.23;;
68680;SDS011;55836;49.858;6.756;2022-11-15T08:40:20;6.07;;;2.90;;
68680;SDS011;55836;49.858;6.756;2022-11-15T08:42:47;4.67;;;2.80;;
68680;SDS011;55836;49.858;6.756;2022-11-15T08:45:13;2.97;;;2.27;;
68680;SDS011;55836;49.858;6.756;2022-11-15T08:47:39;6.50;;;2.20;;
68680;SDS011;55836;49.858;6.756;2022-11-15T08:50:05;3.97;;;2.50;;
68680;SDS011;55836;49.858;6.756;2022-11-15T08:52:31;4.63;;;2.90;;
68680;SDS011;55836;49.858;6.756;2022-11-15T08:54:58;7.33;;;4.10;;
68680;SDS011;55836;49.858;6.756;2022-11-15T08:57:24;4.60;;;4.17;;
68680;SDS011;55836;49.858;6.756;2022-11-15T08:59:50;4.10;;;3.40;;
68680;SDS011;55836;49.858;6.756;2022-11-15T09:02:16;5.43;;;2.67;;
68680;SDS011;55836;49.858;6.756;2022-11-15T09:04:42;4.23;;;2.53;;
68680;SDS011;55836;49.858;6.756;2022-11-15T09:07:08;3.33;;;2.30;;
68680;SDS011;55836;49.858;6.756;2022-11-15T09:09:35;3.20;;;2.00;;
68680;SDS011;55836;49.858;6.756;2022-11-15T09:12:01;3.50;;;2.00;;
68680;SDS011;55836;49.858;6.756;2022-11-15T09:14:27;4.20;;;2.20;;
68680;SDS011;55836;49.858;6.756;2022-11-15T09:16:53;7.93;;;2.63;;
68680;SDS011;55836;49.858;6.756;2022-11-15T09:19:19;2.83;;;2.53;;
68680;SDS011;55836;49.858;6.756;2022-11-15T09:21:45;2.57;;;2.07;;
68680;SDS011;55836;49.858;6.756;2022-11-15T09:24:11;3.97;;;2.80;;
68680;SDS011;55836;49.858;6.756;2022-11-15T09:26:37;6.10;;;3.80;;
68680;SDS011;55836;49.858;6.756;2022-11-15T09:29:03;5.10;;;3.80;;
68680;SDS011;55836;49.858;6.756;2022-11-15T09:31:29;6.83;;;3.73;;
68680;SDS011;55836;49.858;6.756;2022-11-15T09:33:55;7.33;;;4.63;;
68680;SDS011;55836;49.858;6.756;2022-11-15T09:36:21;5.60;;;4.47;;
68680;SDS011;55836;49.858;6.756;2022-11-15T09:38:47;7.13;;;3.93;;
68680;SDS011;55836;49.858;6.756;2022-11-15T09:43:59;5.23;;;3.20;;
68680;SDS011;55836;49.858;6.756;2022-11-15T09:47:21;6.27;;;3.57;;
68680;SDS011;55836;49.858;6.756;2022-11-15T09:49:17;4.67;;;3.70;;
68680;SDS011;55836;49.858;6.756;2022-11-15T09:51:44;8.10;;;3.97;;
68680;SDS011;55836;49.858;6.756;2022-11-15T09:54:31;5.20;;;3.90;;
68680;SDS011;55836;49.858;6.756;2022-11-15T09:57:10;5.37;;;3.70;;
68680;SDS011;55836;49.858;6.756;2022-11-15T10:02:15;8.77;;;5.40;;
68680;SDS011;55836;49.858;6.756;2022-11-15T10:04:45;8.87;;;4.87;;
68680;SDS011;55836;49.858;6.756;2022-11-15T10:07:27;8.43;;;5.43;;
68680;SDS011;55836;49.858;6.756;2022-11-15T10:12:22;11.43;;;6.33;;
68680;SDS011;55836;49.858;6.756;2022-11-15T10:14:48;6.93;;;5.80;;
68680;SDS011;55836;49.858;6.756;2022-11-15T10:17:25;8.73;;;6.53;;
68680;SDS011;55836;49.858;6.756;2022-11-15T10:22:53;6.77;;;6.07;;
68680;SDS011;55836;49.858;6.756;2022-11-15T10:27:44;11.47;;;8.90;;
68680;SDS011;55836;49.858;6.756;2022-11-15T10:30:16;11.20;;;8.50;;
68680;SDS011;55836;49.858;6.756;2022-11-15T10:32:43;11.23;;;8.37;;
68680;SDS011;55836;49.858;6.756;2022-11-15T10:35:16;13.30;;;9.40;;
68680;SDS011;55836;49.858;6.756;2022-11-15T10:37:42;10.97;;;8.83;;
68680;SDS011;55836;49.858;6.756;2022-11-15T10:40:15;10.47;;;8.67;;
68680;SDS011;55836;49.858;6.756;2022-11-15T10:42:41;13.03;;;8.77;;
68680;SDS011;55836;49.858;6.756;2022-11-15T10:45:24;12.90;;;9.00;;
68680;SDS011;55836;49.858;6.756;2022-11-15T10:47:50;11.23;;;8.43;;
68680;SDS011;55836;49.858;6.756;2022-11-15T10:50:30;12.60;;;8.90;;
68680;SDS011;55836;49.858;6.756;2022-11-15T10:52:56;12.77;;;9.00;;
68680;SDS011;55836;49.858;6.756;2022-11-15T10:55:29;12.47;;;8.90;;
68680;SDS011;55836;49.858;6.756;2022-11-15T10:58:00;12.67;;;8.73;;
68680;SDS011;55836;49.858;6.756;2022-11-15T11:00:29;10.63;;;8.93;;
68680;SDS011;55836;49.858;6.756;2022-11-15T11:05:26;10.97;;;8.87;;
68680;SDS011;55836;49.858;6.756;2022-11-15T11:07:59;10.17;;;6.83;;
68680;SDS011;55836;49.858;6.756;2022-11-15T11:10:26;8.80;;;6.37;;
68680;SDS011;55836;49.858;6.756;2022-11-15T11:12:52;10.83;;;7.23;;
68680;SDS011;55836;49.858;6.756;2022-11-15T11:15:19;10.23;;;6.73;;
68680;SDS011;55836;49.858;6.756;2022-11-15T11:17:58;7.50;;;5.47;;
68680;SDS011;55836;49.858;6.756;2022-11-15T11:30:41;4.87;;;3.77;;
68680;SDS011;55836;49.858;6.756;2022-11-15T11:35:50;5.40;;;4.47;;
68680;SDS011;55836;49.858;6.756;2022-11-15T11:41:24;4.90;;;4.50;;
68680;SDS011;55836;49.858;6.756;2022-11-15T11:49:05;4.93;;;3.77;;
68680;SDS011;55836;49.858;6.756;2022-11-15T11:51:37;5.40;;;4.13;;
68680;SDS011;55836;49.858;6.756;2022-11-15T11:56:36;4.60;;;2.40;;
68680;SDS011;55836;49.858;6.756;2022-11-15T11:59:39;4.47;;;2.70;;
68680;SDS011;55836;49.858;6.756;2022-11-15T12:01:56;3.00;;;2.23;;
68680;SDS011;55836;49.858;6.756;2022-11-15T12:04:25;2.50;;;2.30;;
68680;SDS011;55836;49.858;6.756;2022-11-15T12:06:55;5.47;;;2.17;;
68680;SDS011;55836;49.858;6.756;2022-11-15T12:11:51;2.83;;;2.50;;
68680;SDS011;55836;49.858;6.756;2022-11-15T12:14:24;5.53;;;2.97;;
68680;SDS011;55836;49.858;6.756;2022-11-15T12:16:50;2.50;;;2.30;;
68680;SDS011;55836;49.858;6.756;2022-11-15T12:19:16;3.00;;;2.27;;
68680;SDS011;55836;49.858;6.756;2022-11-15T12:27:05;4.13;;;2.20;;
68680;SDS011;55836;49.858;6.756;2022-11-15T12:31:58;3.00;;;2.77;;
68680;SDS011;55836;49.858;6.756;2022-11-15T12:34:29;3.50;;;2.40;;
68680;SDS011;55836;49.858;6.756;2022-11-15T12:37:00;2.70;;;2.30;;
68680;SDS011;55836;49.858;6.756;2022-11-15T12:47:24;2.60;;;2.40;;
68680;SDS011;55836;49.858;6.756;2022-11-15T12:49:50;2.27;;;1.97;;
68680;SDS011;55836;49.858;6.756;2022-11-15T12:52:16;2.40;;;2.20;;
68680;SDS011;55836;49.858;6.756;2022-11-15T13:02:20;3.90;;;2.97;;
68680;SDS011;55836;49.858;6.756;2022-11-15T13:04:47;3.70;;;2.37;;
68680;SDS011;55836;49.858;6.756;2022-11-15T13:07:55;2.37;;;2.13;;
68680;SDS011;55836;49.858;6.756;2022-11-15T13:22:42;1.70;;;1.60;;
68680;SDS011;55836;49.858;6.756;2022-11-15T13:25:23;2.67;;;1.70;;
68680;SDS011;55836;49.858;6.756;2022-11-15T13:27:52;2.70;;;1.87;;
68680;SDS011;55836;49.858;6.756;2022-11-15T13:30:25;2.97;;;2.03;;
68680;SDS011;55836;49.858;6.756;2022-11-15T13:32:51;2.73;;;2.17;;
68680;SDS011;55836;49.858;6.756;2022-11-15T13:35:25;3.17;;;1.63;;
68680;SDS011;55836;49.858;6.756;2022-11-15T13:37:53;2.90;;;2.33;;
68680;SDS011;55836;49.858;6.756;2022-11-15T13:42:48;2.53;;;1.90;;
68680;SDS011;55836;49.858;6.756;2022-11-15T13:45:15;3.23;;;2.20;;
68680;SDS011;55836;49.858;6.756;2022-11-15T13:47:41;5.90;;;3.17;;
68680;SDS011;55836;49.858;6.756;2022-11-15T13:50:11;3.43;;;2.83;;
68680;SDS011;55836;49.858;6.756;2022-11-15T13:52:37;5.93;;;2.20;;
68680;SDS011;55836;49.858;6.756;2022-11-15T13:55:09;4.20;;;3.07;;
68680;SDS011;55836;49.858;6.756;2022-11-15T13:58:11;3.07;;;2.77;;
68680;SDS011;55836;49.858;6.756;2022-11-15T14:00:37;2.93;;;2.57;;
68680;SDS011;55836;49.858;6.756;2022-11-15T14:03:05;2.83;;;2.63;;
68680;SDS011;55836;49.858;6.756;2022-11-15T14:05:32;4.27;;;2.90;;
68680;SDS011;55836;49.858;6.756;2022-11-15T14:07:59;3.47;;;2.80;;
68680;SDS011;55836;49.858;6.756;2022-11-15T14:10:31;4.00;;;2.73;;
68680;SDS011;55836;49.858;6.756;2022-11-15T14:12:57;3.80;;;3.33;;
68680;SDS011;55836;49.858;6.756;2022-11-15T14:15:31;7.50;;;5.57;;
68680;SDS011;55836;49.858;6.756;2022-11-15T14:17:58;3.10;;;2.80;;
68680;SDS011;55836;49.858;6.756;2022-11-15T14:22:55;7.80;;;5.60;;
68680;SDS011;55836;49.858;6.756;2022-11-15T14:25:25;6.17;;;3.70;;
68680;SDS011;55836;49.858;6.756;2022-11-15T14:30:33;4.67;;;3.60;;
68680;SDS011;55836;49.858;6.756;2022-11-15T14:32:59;3.50;;;2.63;;
68680;SDS011;55836;49.858;6.756;2022-11-15T14:35:25;3.47;;;2.80;;
68680;SDS011;55836;49.858;6.756;2022-11-15T14:37:52;3.93;;;2.30;;
68680;SDS011;55836;49.858;6.756;2022-11-15T14:40:18;3.97;;;3.13;;
68680;SDS011;55836;49.858;6.756;2022-11-15T14:42:46;4.03;;;3.17;;
68680;SDS011;55836;49.858;6.756;2022-11-15T14:45:13;5.03;;;2.93;;
68680;SDS011;55836;49.858;6.756;2022-11-15T14:47:40;3.20;;;2.83;;
68680;SDS011;55836;49.858;6.756;2022-11-15T14:50:06;5.50;;;3.40;;
68680;SDS011;55836;49.858;6.756;2022-11-15T14:52:36;4.90;;;3.33;;
68680;SDS011;55836;49.858;6.756;2022-11-15T14:55:03;3.93;;;3.23;;
68680;SDS011;55836;49.858;6.756;2022-11-15T14:57:29;4.23;;;2.80;;
68680;SDS011;55836;49.858;6.756;2022-11-15T14:59:55;3.70;;;2.40;;
68680;SDS011;55836;49.858;6.756;2022-11-15T15:02:23;4.00;;;3.47;;
68680;SDS011;55836;49.858;6.756;2022-11-15T15:04:50;2.00;;;1.80;;
68680;SDS011;55836;49.858;6.756;2022-11-15T15:07:16;4.03;;;2.80;;
68680;SDS011;55836;49.858;6.756;2022-11-15T15:09:43;5.23;;;3.03;;
68680;SDS011;55836;49.858;6.756;2022-11-15T15:12:16;2.80;;;2.00;;
68680;SDS011;55836;49.858;6.756;2022-11-15T15:14:43;3.40;;;2.43;;
68680;SDS011;55836;49.858;6.756;2022-11-15T15:17:09;3.63;;;2.77;;
68680;SDS011;55836;49.858;6.756;2022-11-15T15:19:35;6.17;;;4.07;;
68680;SDS011;55836;49.858;6.756;2022-11-15T15:22:01;6.93;;;4.27;;
68680;SDS011;55836;49.858;6.756;2022-11-15T15:24:27;2.77;;;2.47;;
68680;SDS011;55836;49.858;6.756;2022-11-15T15:26:53;3.17;;;2.20;;
68680;SDS011;55836;49.858;6.756;2022-11-15T15:29:19;3.17;;;2.10;;
68680;SDS011;55836;49.858;6.756;2022-11-15T15:31:45;2.73;;;2.53;;
68680;SDS011;55836;49.858;6.756;2022-11-15T15:34:12;3.67;;;3.20;;
68680;SDS011;55836;49.858;6.756;2022-11-15T15:36:38;7.70;;;4.77;;
68680;SDS011;55836;49.858;6.756;2022-11-15T15:39:04;9.77;;;6.03;;
68680;SDS011;55836;49.858;6.756;2022-11-15T15:41:30;7.47;;;4.07;;
68680;SDS011;55836;49.858;6.756;2022-11-15T15:43:56;6.73;;;2.80;;
68680;SDS011;55836;49.858;6.756;2022-11-15T15:46:22;6.03;;;3.57;;
68680;SDS011;55836;49.858;6.756;2022-11-15T15:48:48;5.60;;;4.57;;
68680;SDS011;55836;49.858;6.756;2022-11-15T15:51:20;7.60;;;4.30;;
68680;SDS011;55836;49.858;6.756;2022-11-15T15:53:46;6.73;;;4.80;;
68680;SDS011;55836;49.858;6.756;2022-11-15T15:56:12;7.63;;;4.77;;
68680;SDS011;55836;49.858;6.756;2022-11-15T15:58:39;5.90;;;3.67;;
68680;SDS011;55836;49.858;6.756;2022-11-15T16:01:05;4.50;;;2.60;;
68680;SDS011;55836;49.858;6.756;2022-11-15T16:03:31;4.93;;;2.57;;
68680;SDS011;55836;49.858;6.756;2022-11-15T16:05:57;2.43;;;1.77;;
68680;SDS011;55836;49.858;6.756;2022-11-15T16:08:24;1.90;;;1.80;;
68680;SDS011;55836;49.858;6.756;2022-11-15T16:10:52;3.63;;;1.93;;
68680;SDS011;55836;49.858;6.756;2022-11-15T16:13:18;1.80;;;1.67;;
68680;SDS011;55836;49.858;6.756;2022-11-15T16:15:44;2.43;;;1.90;;
68680;SDS011;55836;49.858;6.756;2022-11-15T16:18:15;2.30;;;1.50;;
68680;SDS011;55836;49.858;6.756;2022-11-15T16:20:42;2.27;;;1.47;;
68680;SDS011;55836;49.858;6.756;2022-11-15T16:23:13;1.73;;;1.63;;
68680;SDS011;55836;49.858;6.756;2022-11-15T16:25:41;2.27;;;1.80;;
68680;SDS011;55836;49.858;6.756;2022-11-15T16:28:17;2.30;;;2.10;;
68680;SDS011;55836;49.858;6.756;2022-11-15T16:30:44;5.47;;;2.67;;
68680;SDS011;55836;49.858;6.756;2022-11-15T16:33:10;2.93;;;1.87;;
68680;SDS011;55836;49.858;6.756;2022-11-15T16:35:36;4.93;;;1.90;;
68680;SDS011;55836;49.858;6.756;2022-11-15T16:38:02;2.53;;;2.07;;
68680;SDS011;55836;49.858;6.756;2022-11-15T16:40:29;2.00;;;1.80;;